METAR Data
IDs: Format: Raw Decoded Include TAF

Data at: 1338 UTC 14 Dec 2019

PATE 141256Z AUTO 14013KT 10SM BKN036 OVC060 M05/M07 A2945 RMK AO2 SLP982 T10501067 FZRANO
PATE 141156Z AUTO 11010KT 10SM OVC036 M05/M07 A2945 RMK AO2 SNE32 SLP982 P0000 60000 T10501067 11050 21072 53003 FZRANO
PATE 141056Z AUTO 11015KT 9SM -SN OVC034 M06/M07 A2945 RMK AO2 SNB31 SLP981 P0000 T10561072 FZRANO
PATE 141004Z AUTO 09014KT 10SM SCT027 OVC038 M06/M07 A2944 RMK AO2 FZRANO
PATE 140956Z AUTO 08014KT 10SM BKN027 OVC040 M06/M07 A2944 RMK AO2 SLP978 T10561072 FZRANO
PATE 140944Z AUTO 10009KT 10SM BKN027 OVC042 M06/M08 A2945 RMK AO2 FZRANO
PATE 140934Z AUTO 11008KT 10SM SCT029 OVC042 M06/M08 A2945 RMK AO2 FZRANO
PATE 140856Z AUTO 11009KT 10SM OVC027 M06/M08 A2944 RMK AO2 SLP979 T10611078 410441106 53015 FZRANO
PATE 140756Z AUTO 11011KT 10SM OVC023 M06/M08 A2942 RMK AO2 SLP970 T10611083 FZRANO
PATE 140656Z AUTO 14008KT 10SM OVC021 M06/M08 A2941 RMK AO2 SLP968 T10561083 FZRANO
PATE 140556Z AUTO VRB03KT 10SM BKN021 OVC029 M07/M09 A2940 RMK AO2 SNE26 SLP963 P0000 60000 T10721089 11067 21100 51013 FZRANO
PATE 140522Z AUTO 13008KT 9SM -SN BKN029 OVC041 M07/M09 A2940 RMK AO2 P0000 FZRANO
PATE 140456Z AUTO 10007KT 9SM -SN OVC033 M07/M09 A2939 RMK AO2 SLP959 P0000 T10721089 FZRANO
PATE 140420Z AUTO 08006KT 9SM -SN FEW023 BKN033 OVC050 M08/M10 A2938 RMK AO2 P0000 FZRANO
PATE 140356Z AUTO 12006KT 3SM -SN BR SCT015 BKN023 OVC050 M09/M10 A2938 RMK AO2 SLP955 P0000 T10891100 FZRANO
PATE 140335Z AUTO 15004KT 2 1/2SM -SN BR OVC025 M09/M11 A2937 RMK AO2 P0000 FZRANO
PATE 140315Z AUTO 08004KT 4SM -SN BR BKN029 OVC035 M09/M11 A2936 RMK AO2 P0000 FZRANO
PATE 140256Z AUTO 12009KT 9SM -SN SCT028 BKN036 OVC043 M09/M12 A2936 RMK AO2 SNB48 SLP951 P0000 60000 T10941117 53017 FZRANO
PATE 140156Z AUTO 19006KT 10SM OVC032 M09/M12 A2934 RMK AO2 SLP942 T10941117 FZRANO
PATE 140056Z AUTO 10012KT 10SM OVC032 M08/M11 A2931 RMK AO2 SLP933 T10831106 FZRANO
PATE 132356Z AUTO 11007KT 10SM OVC030 M09/M12 A2931 RMK AO2 SLP934 T10941117 11083 21106 51008 FZRANO
PATE 132256Z AUTO 13013KT 10SM OVC030 M10/M12 A2931 RMK AO2 SLP933 T11001122 FZRANO
PATE 132156Z AUTO 16003KT 10SM OVC030 M09/M11 A2930 RMK AO2 SLP929 T10891111 FZRANO
PATE 132056Z AUTO 15006KT 10SM OVC034 M10/M12 A2928 RMK AO2 SLP924 T11001122 51008 FZRANO
PATE 131956Z AUTO 15011KT 10SM FEW031 M11/M12 A2928 RMK AO2 SLP924 T11061122 FZRANO
PATE 131856Z AUTO 15012KT 10SM CLR M10/M12 A2927 RMK AO2 SLP919 T11001122 FZRANO
PATE 131756Z AUTO 13008KT 10SM CLR M08/M11 A2926 RMK AO2 SLP916 T10831111 11044 21094 55001 FZRANO
PATE 131356Z AUTO 10004KT 10SM CLR M07/M10 A2927 RMK AO2 SLP921 T10721100 FZRANO
PATE 131256Z AUTO 13006KT 10SM CLR M06/M09 A2928 RMK AO2 SLP925 T10611089 FZRANO
PATE 131156Z AUTO 11003KT 10SM CLR M04/M08 A2929 RMK AO2 SLP925 T10441078 11044 21083 56015 FZRANO
PATE 131056Z AUTO 14006KT 10SM CLR M05/M08 A2930 RMK AO2 SLP930 T10501083 FZRANO
PATE 130956Z AUTO 13008KT 10SM CLR M06/M09 A2931 RMK AO2 SLP935 T10611089 FZRANO
PATE 130856Z AUTO 13009KT 10SM CLR M07/M09 A2933 RMK AO2 SLP941 T10671094 410221083 56005 FZRANO
PATE 130756Z AUTO 13006KT 10SM CLR M07/M09 A2933 RMK AO2 SLP943 T10671094 FZRANO
PATE 130656Z AUTO 15007KT 10SM CLR M07/M10 A2934 RMK AO2 SLP945 T10721100 FZRANO
PATE 130556Z AUTO 13009KT 10SM CLR M07/M09 A2935 RMK AO2 SLP946 T10671094 11061 21078 58007 FZRANO
PATE 130456Z AUTO 14009KT 10SM CLR M06/M09 A2936 RMK AO2 SLP949 T10611094 FZRANO
PATE 130356Z AUTO 14011KT 10SM CLR M07/M10 A2937 RMK AO2 SLP954 T10721100 FZRANO
PATE 130256Z AUTO 14005KT 10SM CLR M07/M10 A2937 RMK AO2 SLP953 T10721100 56005 FZRANO
PATE 130156Z AUTO 15007KT 10SM CLR M07/M10 A2937 RMK AO2 SLP955 T10671100 FZRANO